createdAt,value
2022-09-09T00:00:21.409Z,11.20
2022-09-09T00:03:24.775Z,11.80
2022-09-09T00:06:07.010Z,11.90
2022-09-09T00:08:49.622Z,11.30
2022-09-09T00:11:31.172Z,12.00
2022-09-09T00:14:05.631Z,10.80
2022-09-09T00:16:41.402Z,11.70
2022-09-09T00:19:32.084Z,11.40
2022-09-09T00:22:05.891Z,11.60
2022-09-09T00:24:43.361Z,11.40
2022-09-09T00:27:39.205Z,9.70
2022-09-09T00:30:20.894Z,10.00
2022-09-09T00:32:50.708Z,10.20
2022-09-09T00:36:02.402Z,10.00
2022-09-09T00:38:42.760Z,9.70
2022-09-09T00:41:20.151Z,10.30
2022-09-09T00:44:14.744Z,8.80
2022-09-09T00:46:51.929Z,9.40
2022-09-09T00:49:24.920Z,9.70
2022-09-09T00:52:11.010Z,9.30
2022-09-09T00:54:54.341Z,8.70
2022-09-09T00:57:32.373Z,7.90
2022-09-09T01:00:21.509Z,9.00
2022-09-09T01:03:33.101Z,9.50
2022-09-09T01:06:32.714Z,9.10
2022-09-09T01:09:27.305Z,8.40
2022-09-09T01:12:17.703Z,9.10
2022-09-09T01:14:53.350Z,8.80
2022-09-09T01:17:32.481Z,9.20
2022-09-09T01:20:18.369Z,9.20
2022-09-09T01:23:18.288Z,8.90
2022-09-09T01:26:15.953Z,9.00
2022-09-09T01:28:48.227Z,9.80
2022-09-09T01:31:42.508Z,10.20
2022-09-09T01:34:16.419Z,10.20
2022-09-09T01:36:54.421Z,9.70
2022-09-09T01:39:22.804Z,9.60
2022-09-09T01:41:59.473Z,9.60
2022-09-09T01:44:28.601Z,9.90
2022-09-09T01:46:56.846Z,10.20
2022-09-09T01:49:25.120Z,11.30
2022-09-09T01:51:56.265Z,10.40
2022-09-09T01:54:34.575Z,10.00
2022-09-09T01:57:33.163Z,9.90
2022-09-09T02:00:12.013Z,9.30
2022-09-09T02:02:57.982Z,11.50
2022-09-09T02:05:39.053Z,11.00
2022-09-09T02:08:38.243Z,11.10
2022-09-09T02:11:15.133Z,12.10
2022-09-09T02:14:24.985Z,11.20
2022-09-09T02:17:04.512Z,11.20
2022-09-09T02:19:55.226Z,12.00
2022-09-09T02:22:40.792Z,10.30
2022-09-09T02:25:13.487Z,11.10
2022-09-09T02:27:44.939Z,12.50
2022-09-09T02:32:48.557Z,11.90
2022-09-09T02:35:22.265Z,11.10
2022-09-09T02:37:53.592Z,12.20
2022-09-09T02:40:22.704Z,12.40
2022-09-09T02:42:57.124Z,12.00
2022-09-09T02:45:29.746Z,12.00
2022-09-09T02:48:10.269Z,12.00
2022-09-09T02:50:55.438Z,13.40
2022-09-09T02:53:39.689Z,12.80
2022-09-09T02:56:17.488Z,12.80
2022-09-09T02:58:47.611Z,12.10
2022-09-09T03:01:15.822Z,12.60
2022-09-09T03:03:45.492Z,13.00
2022-09-09T03:06:16.840Z,13.20
2022-09-09T03:08:49.448Z,14.20
2022-09-09T03:11:20.048Z,13.00
2022-09-09T03:13:48.428Z,12.10
2022-09-09T03:16:16.540Z,12.70
2022-09-09T03:18:47.233Z,11.40
2022-09-09T03:21:15.714Z,13.90
2022-09-09T03:23:45.424Z,12.40
2022-09-09T03:26:13.598Z,12.50
2022-09-09T03:28:45.970Z,13.20
2022-09-09T03:31:15.822Z,12.10
2022-09-09T03:33:44.476Z,12.20
2022-09-09T03:36:16.236Z,10.90
2022-09-09T03:38:44.606Z,12.80
2022-09-09T03:41:13.995Z,12.00
2022-09-09T03:43:42.989Z,13.30
2022-09-09T03:46:11.465Z,12.40
2022-09-09T03:48:39.917Z,12.60
2022-09-09T03:51:08.264Z,13.30
2022-09-09T03:53:36.907Z,14.20
2022-09-09T03:56:07.737Z,11.00
2022-09-09T03:58:37.254Z,13.00
2022-09-09T04:01:15.331Z,13.20
2022-09-09T04:03:45.902Z,12.70
2022-09-09T04:06:15.827Z,11.20
2022-09-09T04:08:46.245Z,14.20
2022-09-09T04:11:16.667Z,13.80
2022-09-09T04:13:45.751Z,13.10
2022-09-09T04:16:14.561Z,12.30
2022-09-09T04:18:44.647Z,13.10
2022-09-09T04:21:13.972Z,12.30
2022-09-09T04:23:42.251Z,12.50
2022-09-09T04:26:11.478Z,12.40
2022-09-09T04:28:40.235Z,12.40
2022-09-09T04:31:19.923Z,13.40
2022-09-09T04:33:49.588Z,12.30
2022-09-09T04:36:19.502Z,13.40
2022-09-09T04:38:50.031Z,12.50
2022-09-09T04:41:18.517Z,11.90
2022-09-09T04:43:47.506Z,12.00
2022-09-09T04:46:18.458Z,12.50
2022-09-09T04:48:47.335Z,13.00
2022-09-09T04:51:15.990Z,12.90
2022-09-09T04:53:46.447Z,12.40
2022-09-09T04:56:19.083Z,13.70
2022-09-09T04:58:52.934Z,13.70
2022-09-09T05:01:25.043Z,13.30
2022-09-09T05:03:54.504Z,13.60
2022-09-09T05:06:24.318Z,14.40
2022-09-09T05:08:56.278Z,14.50
2022-09-09T05:11:29.683Z,13.90
2022-09-09T05:14:02.455Z,13.70
2022-09-09T05:16:32.274Z,13.80
2022-09-09T05:19:00.549Z,13.30
2022-09-09T05:21:36.296Z,13.10
2022-09-09T05:24:04.914Z,13.60
2022-09-09T05:26:33.667Z,14.10
2022-09-09T05:29:02.456Z,14.70
2022-09-09T05:31:32.283Z,14.20
2022-09-09T05:34:03.744Z,13.40
2022-09-09T05:36:31.892Z,13.50
2022-09-09T05:39:00.784Z,13.80
2022-09-09T05:41:30.187Z,14.70
2022-09-09T05:44:00.304Z,13.70
2022-09-09T05:46:28.949Z,13.50
2022-09-09T05:48:57.164Z,14.50
2022-09-09T05:51:33.840Z,15.20
2022-09-09T05:54:06.416Z,14.10
2022-09-09T05:56:36.535Z,14.30
2022-09-09T05:59:05.530Z,12.40
2022-09-09T06:01:36.598Z,14.30
2022-09-09T06:04:05.053Z,13.90
2022-09-09T06:06:40.512Z,14.10
2022-09-09T06:09:19.421Z,13.60
2022-09-09T06:11:47.491Z,13.80
2022-09-09T06:14:16.382Z,13.70
2022-09-09T06:16:47.424Z,14.30
2022-09-09T06:19:21.656Z,14.30
2022-09-09T06:21:51.554Z,13.20
2022-09-09T06:24:21.161Z,13.00
2022-09-09T06:26:49.546Z,14.00
2022-09-09T06:29:24.063Z,12.30
2022-09-09T06:31:52.841Z,12.80
2022-09-09T06:34:25.634Z,13.20
2022-09-09T06:36:59.481Z,14.20
2022-09-09T06:39:32.414Z,12.70
2022-09-09T06:42:01.317Z,11.90
2022-09-09T06:45:08.845Z,12.00
2022-09-09T06:47:43.436Z,10.00
2022-09-09T06:50:12.226Z,12.90
2022-09-09T06:52:41.628Z,12.50
2022-09-09T06:55:10.725Z,13.40
2022-09-09T06:57:39.715Z,12.70
2022-09-09T07:00:15.410Z,11.90
2022-09-09T07:02:43.541Z,12.40
2022-09-09T07:05:12.122Z,12.40
2022-09-09T07:07:40.910Z,13.20
2022-09-09T07:10:10.702Z,12.70
2022-09-09T07:12:39.011Z,12.60
2022-09-09T07:15:08.345Z,12.40
2022-09-09T07:17:36.473Z,12.40
2022-09-09T07:20:05.631Z,14.30
2022-09-09T07:22:34.868Z,12.00
2022-09-09T07:25:04.783Z,12.50
2022-09-09T07:27:32.855Z,13.10
2022-09-09T07:30:01.030Z,11.90
2022-09-09T07:32:29.100Z,13.50
2022-09-09T07:34:59.527Z,12.90
2022-09-09T07:37:28.622Z,11.70
2022-09-09T07:39:56.833Z,12.40
2022-09-09T07:42:24.976Z,13.10
2022-09-09T07:44:56.115Z,13.80
2022-09-09T07:47:26.033Z,15.50
2022-09-09T07:49:54.305Z,14.00
2022-09-09T07:52:26.473Z,13.30
2022-09-09T07:54:58.338Z,12.10
2022-09-09T07:57:27.120Z,11.00
2022-09-09T07:59:55.601Z,11.80
2022-09-09T08:02:26.672Z,11.10
2022-09-09T08:04:54.816Z,12.10
2022-09-09T08:07:24.628Z,11.80
2022-09-09T08:09:56.886Z,10.70
2022-09-09T08:12:29.273Z,9.60
2022-09-09T08:14:57.809Z,10.10
2022-09-09T08:19:58.504Z,8.50
2022-09-09T08:22:29.134Z,9.40
2022-09-09T08:24:57.614Z,9.20
2022-09-09T08:27:26.813Z,9.00
2022-09-09T08:29:57.035Z,7.00
2022-09-09T08:32:25.311Z,6.30
2022-09-09T08:34:54.593Z,5.40
2022-09-09T08:37:24.222Z,4.80
2022-09-09T08:39:54.411Z,4.60
2022-09-09T08:42:36.848Z,4.50
2022-09-09T08:45:27.858Z,5.00
2022-09-09T08:47:59.922Z,5.20
2022-09-09T08:50:36.679Z,6.20
2022-09-09T08:53:33.441Z,6.40
2022-09-09T08:56:11.139Z,5.20
2022-09-09T08:58:58.358Z,5.70
2022-09-09T09:01:51.564Z,6.00
2022-09-09T09:04:46.474Z,5.50
2022-09-09T09:07:23.297Z,4.50
2022-09-09T09:10:01.345Z,3.90
2022-09-09T09:12:42.480Z,3.40
2022-09-09T09:15:32.568Z,3.30
2022-09-09T09:18:01.460Z,3.50
2022-09-09T09:20:42.827Z,3.30
2022-09-09T09:23:22.288Z,4.10
2022-09-09T09:25:53.731Z,4.10
2022-09-09T09:28:27.025Z,3.20
2022-09-09T09:31:04.772Z,2.70
2022-09-09T09:33:42.524Z,3.50
2022-09-09T09:36:10.900Z,3.40
2022-09-09T09:41:42.576Z,3.70
2022-09-09T09:44:29.283Z,4.00
2022-09-09T09:47:14.445Z,3.20
2022-09-09T09:50:03.488Z,3.40
2022-09-09T09:52:37.924Z,3.40
2022-09-09T09:55:15.346Z,3.00
2022-09-09T09:57:46.077Z,3.20
2022-09-09T10:00:24.056Z,3.00
2022-09-09T10:02:57.887Z,3.50
2022-09-09T10:05:35.828Z,2.90
2022-09-09T10:08:15.545Z,3.70
2022-09-09T10:10:50.047Z,3.30
2022-09-09T10:13:37.673Z,2.80
2022-09-09T10:16:28.785Z,3.10
2022-09-09T10:19:02.386Z,2.40
2022-09-09T10:21:57.286Z,2.20
2022-09-09T10:24:56.487Z,2.40
2022-09-09T10:27:36.872Z,2.60
2022-09-09T10:30:19.413Z,2.20
2022-09-09T10:35:46.933Z,2.80
2022-09-09T10:38:35.951Z,2.50
2022-09-09T10:41:32.864Z,2.70
2022-09-09T10:44:12.919Z,3.00
2022-09-09T10:47:02.158Z,2.80
2022-09-09T10:49:59.819Z,2.90
2022-09-09T10:52:36.948Z,3.00
2022-09-09T10:55:30.153Z,2.60
2022-09-09T10:58:01.166Z,2.60
2022-09-09T11:00:41.671Z,2.30
2022-09-09T11:03:36.952Z,2.40
2022-09-09T11:06:16.141Z,2.00
2022-09-09T11:08:44.218Z,2.00
2022-09-09T11:11:34.941Z,2.00
2022-09-09T11:14:09.714Z,2.30
2022-09-09T11:16:47.603Z,2.20
2022-09-09T11:19:35.330Z,1.60
2022-09-09T11:22:31.340Z,2.10
2022-09-09T11:25:09.748Z,2.70
2022-09-09T11:27:54.702Z,2.00
2022-09-09T11:33:36.035Z,2.20
2022-09-09T11:36:22.572Z,2.20
2022-09-09T11:38:53.818Z,1.90
2022-09-09T11:41:23.018Z,2.00
2022-09-09T11:43:53.268Z,2.50
2022-09-09T11:46:34.938Z,2.10
2022-09-09T11:49:06.381Z,2.00
2022-09-09T11:51:36.533Z,2.20
2022-09-09T11:54:30.785Z,2.30
2022-09-09T11:56:59.767Z,1.50
2022-09-09T11:59:33.182Z,1.40
2022-09-09T12:02:19.979Z,1.10
2022-09-09T12:04:59.775Z,1.50
2022-09-09T12:07:35.074Z,1.50
2022-09-09T12:10:08.106Z,1.40
2022-09-09T12:12:43.234Z,1.60
2022-09-09T12:15:13.213Z,1.70
2022-09-09T12:17:47.586Z,1.90
2022-09-09T12:20:28.406Z,2.10
2022-09-09T12:23:17.568Z,1.40
2022-09-09T12:26:04.380Z,1.30
2022-09-09T12:28:44.639Z,1.30
2022-09-09T12:31:36.977Z,1.30
2022-09-09T12:34:48.571Z,1.70
2022-09-09T12:37:25.447Z,1.90
2022-09-09T12:40:21.066Z,1.60
2022-09-09T12:42:49.648Z,1.80
2022-09-09T12:45:22.327Z,1.70
2022-09-09T12:48:13.336Z,1.80
2022-09-09T12:50:51.443Z,1.60
2022-09-09T12:53:26.068Z,2.10
2022-09-09T12:56:08.681Z,1.70
2022-09-09T12:58:41.435Z,1.60
2022-09-09T13:01:25.492Z,1.70
2022-09-09T13:03:54.194Z,1.70
2022-09-09T13:06:29.077Z,1.30
2022-09-09T13:09:00.461Z,1.70
2022-09-09T13:11:36.973Z,1.40
2022-09-09T13:14:05.855Z,1.60
2022-09-09T13:16:41.891Z,1.70
2022-09-09T13:19:18.487Z,1.60
2022-09-09T13:21:46.637Z,1.70
2022-09-09T13:24:32.533Z,1.40
2022-09-09T13:27:03.057Z,1.80
2022-09-09T13:29:33.771Z,1.60
2022-09-09T13:32:18.245Z,1.60
2022-09-09T13:34:53.375Z,1.80
2022-09-09T13:37:38.044Z,1.80
2022-09-09T13:40:08.314Z,1.70
2022-09-09T13:42:43.913Z,1.80
2022-09-09T13:45:23.556Z,1.90
2022-09-09T13:47:56.663Z,1.60
2022-09-09T13:50:30.856Z,1.60
2022-09-09T13:53:00.776Z,1.50
2022-09-09T13:55:31.816Z,1.80
2022-09-09T13:58:02.554Z,1.70
2022-09-09T14:00:33.386Z,1.90
2022-09-09T14:03:03.438Z,2.10
2022-09-09T14:05:34.063Z,2.10
2022-09-09T14:08:05.321Z,2.60
2022-09-09T14:10:34.069Z,2.10
2022-09-09T14:13:02.758Z,1.90
2022-09-09T14:15:31.338Z,2.20
2022-09-09T14:18:00.229Z,2.00
2022-09-09T14:20:28.307Z,2.20
2022-09-09T14:23:02.857Z,2.10
2022-09-09T14:25:32.642Z,1.90
2022-09-09T14:28:00.808Z,1.80
2022-09-09T14:30:29.254Z,2.00
2022-09-09T14:32:57.464Z,1.80
2022-09-09T14:35:25.945Z,2.00
2022-09-09T14:37:54.221Z,2.10
2022-09-09T14:40:22.599Z,2.40
2022-09-09T14:42:50.876Z,1.90
2022-09-09T14:45:18.948Z,1.80
2022-09-09T14:47:47.020Z,1.90
2022-09-09T14:50:15.505Z,2.10
2022-09-09T14:52:43.982Z,2.10
2022-09-09T14:55:12.565Z,2.00
2022-09-09T14:57:41.456Z,2.20
2022-09-09T15:02:57.999Z,2.10
2022-09-09T15:05:26.766Z,1.90
2022-09-09T15:07:56.570Z,1.80
2022-09-09T15:10:25.569Z,1.80
2022-09-09T15:12:55.943Z,1.80
2022-09-09T15:15:24.789Z,1.90
2022-09-09T15:17:53.712Z,1.80
2022-09-09T15:20:23.997Z,2.50
2022-09-09T15:22:54.120Z,1.90
2022-09-09T15:25:23.214Z,1.90
2022-09-09T15:27:51.286Z,2.30
2022-09-09T15:30:19.361Z,2.30
2022-09-09T15:32:47.429Z,2.20
2022-09-09T15:35:16.633Z,2.90
2022-09-09T15:37:44.701Z,2.30
2022-09-09T15:40:13.283Z,2.40
2022-09-09T15:42:41.574Z,2.80
2022-09-09T15:45:10.376Z,3.30
2022-09-09T15:47:38.376Z,3.90
2022-09-09T15:50:07.327Z,3.50
2022-09-09T15:52:35.383Z,3.50
2022-09-09T15:55:03.657Z,3.50
2022-09-09T15:57:31.831Z,3.50
2022-09-09T16:00:00.827Z,2.90
2022-09-09T16:02:29.080Z,2.50
2022-09-09T16:04:58.709Z,2.50
2022-09-09T16:07:26.778Z,4.00
2022-09-09T16:09:55.534Z,2.80
2022-09-09T16:12:23.571Z,2.70
2022-09-09T16:14:51.607Z,3.10
2022-09-09T16:17:21.727Z,3.70
2022-09-09T16:19:49.799Z,3.40
2022-09-09T16:22:19.201Z,3.00
2022-09-09T16:24:47.377Z,3.50
2022-09-09T16:27:15.452Z,4.10
2022-09-09T16:29:43.622Z,3.90
2022-09-09T16:32:12.408Z,4.50
2022-09-09T16:34:41.504Z,4.80
2022-09-09T16:37:09.682Z,4.70
2022-09-09T16:39:37.895Z,5.10
2022-09-09T16:42:06.128Z,5.10
2022-09-09T16:44:34.405Z,5.30
2022-09-09T16:47:02.476Z,5.70
2022-09-09T16:49:31.060Z,6.10
2022-09-09T16:52:00.904Z,6.00
2022-09-09T16:54:30.456Z,6.40
2022-09-09T16:57:00.717Z,5.60
2022-09-09T16:59:29.170Z,6.20
2022-09-09T17:01:57.610Z,5.90
2022-09-09T17:04:29.161Z,6.30
2022-09-09T17:06:58.712Z,7.30
2022-09-09T17:09:30.520Z,6.40
2022-09-09T17:12:00.100Z,6.70
2022-09-09T17:14:28.158Z,6.00
2022-09-09T17:17:13.758Z,6.90
2022-09-09T17:19:47.045Z,6.30
2022-09-09T17:22:17.769Z,6.40
2022-09-09T17:24:48.707Z,6.90
2022-09-09T17:27:16.788Z,7.00
2022-09-09T17:29:44.854Z,7.40
2022-09-09T17:32:13.435Z,7.60
2022-09-09T17:34:41.608Z,8.20
2022-09-09T17:37:09.781Z,7.60
2022-09-09T17:39:37.921Z,8.60
2022-09-09T17:42:08.586Z,6.60
2022-09-09T17:44:36.968Z,5.80
2022-09-09T17:47:07.154Z,5.50
2022-09-09T17:49:35.258Z,6.90
2022-09-09T17:52:03.563Z,7.70
2022-09-09T17:54:31.606Z,11.10
2022-09-09T17:57:00.623Z,12.20
2022-09-09T17:59:28.772Z,9.50
2022-09-09T18:01:59.068Z,9.80
2022-09-09T18:04:27.988Z,9.30
2022-09-09T18:06:56.679Z,8.40
2022-09-09T18:09:26.695Z,7.50
2022-09-09T18:11:56.812Z,8.10
2022-09-09T18:14:30.412Z,8.30
2022-09-09T18:17:00.847Z,7.60
2022-09-09T18:19:33.210Z,8.50
2022-09-09T18:22:04.150Z,7.60
2022-09-09T18:24:33.462Z,8.50
2022-09-09T18:27:01.520Z,8.60
2022-09-09T18:29:31.436Z,9.60
2022-09-09T18:32:00.223Z,10.30
2022-09-09T18:34:30.356Z,8.80
2022-09-09T18:36:59.027Z,9.00
2022-09-09T18:39:29.899Z,8.40
2022-09-09T18:42:00.971Z,10.00
2022-09-09T18:44:32.873Z,9.40
2022-09-09T18:47:03.194Z,9.70
2022-09-09T18:49:33.547Z,11.40
2022-09-09T18:52:04.408Z,10.20
2022-09-09T18:54:34.280Z,11.40
2022-09-09T18:57:02.646Z,12.60
2022-09-09T18:59:30.948Z,11.90
2022-09-09T19:01:59.265Z,11.70
2022-09-09T19:04:27.990Z,12.30
2022-09-09T19:06:59.542Z,13.60
2022-09-09T19:09:31.834Z,13.40
2022-09-09T19:12:01.217Z,12.70
2022-09-09T19:14:30.588Z,10.80
2022-09-09T19:16:58.898Z,11.10
2022-09-09T19:19:30.753Z,11.80
2022-09-09T19:22:00.769Z,10.60
2022-09-09T19:24:33.556Z,13.10
2022-09-09T19:27:07.040Z,12.10
2022-09-09T19:29:37.785Z,12.00
2022-09-09T19:34:54.614Z,12.70
2022-09-09T19:37:22.684Z,12.80
2022-09-09T19:39:51.092Z,12.50
2022-09-09T19:42:19.441Z,14.30
2022-09-09T19:44:47.621Z,13.10
2022-09-09T19:47:15.790Z,14.40
2022-09-09T19:49:47.234Z,13.40
2022-09-09T19:52:17.332Z,14.40
2022-09-09T19:54:46.924Z,12.40
2022-09-09T19:57:16.271Z,12.90
2022-09-09T19:59:44.441Z,13.40
2022-09-09T20:02:15.692Z,13.30
2022-09-09T20:04:44.942Z,14.60
2022-09-09T20:07:13.582Z,13.30
2022-09-09T20:09:41.850Z,13.40
2022-09-09T20:12:10.328Z,14.60
2022-09-09T20:14:39.874Z,14.10
2022-09-09T20:17:09.235Z,12.60
2022-09-09T20:19:39.056Z,13.80
2022-09-09T20:22:07.843Z,12.60
2022-09-09T20:24:37.169Z,14.40
2022-09-09T20:27:07.359Z,13.90
2022-09-09T20:29:37.316Z,13.50
2022-09-09T20:32:06.060Z,14.10
2022-09-09T20:34:34.853Z,14.80
2022-09-09T20:37:04.883Z,14.30
2022-09-09T20:39:33.272Z,13.50
2022-09-09T20:42:02.659Z,13.80
2022-09-09T20:44:31.641Z,15.10
2022-09-09T20:47:06.699Z,14.90
2022-09-09T20:49:35.566Z,14.90
2022-09-09T20:52:04.406Z,14.90
2022-09-09T20:54:33.758Z,13.80
2022-09-09T20:57:02.341Z,14.30
2022-09-09T20:59:35.022Z,14.50
2022-09-09T21:02:03.741Z,14.60
2022-09-09T21:04:32.293Z,14.20
2022-09-09T21:07:01.079Z,15.50
2022-09-09T21:09:29.292Z,14.10
2022-09-09T21:11:57.324Z,14.50
2022-09-09T21:14:25.499Z,13.90
2022-09-09T21:16:54.799Z,14.60
2022-09-09T21:19:22.870Z,14.40
2022-09-09T21:21:51.051Z,17.40
2022-09-09T21:24:19.114Z,14.20
2022-09-09T21:26:47.186Z,13.80
2022-09-09T21:29:15.465Z,14.20
2022-09-09T21:31:43.864Z,14.30
2022-09-09T21:34:13.653Z,14.90
2022-09-09T21:36:41.725Z,14.60
2022-09-09T21:39:09.900Z,15.30
2022-09-09T21:41:37.971Z,14.30
2022-09-09T21:44:06.427Z,13.60
2022-09-09T21:46:34.443Z,15.20
2022-09-09T21:49:04.132Z,15.50
2022-09-09T21:51:32.322Z,14.80
2022-09-09T21:54:00.380Z,14.80
2022-09-09T21:56:29.267Z,15.00
2022-09-09T21:58:59.390Z,14.00
2022-09-09T22:01:27.621Z,14.10
2022-09-09T22:03:55.836Z,14.10
2022-09-09T22:06:23.907Z,14.60
2022-09-09T22:08:52.287Z,13.60
2022-09-09T22:11:22.674Z,14.00
2022-09-09T22:13:53.447Z,14.60
2022-09-09T22:16:22.798Z,14.30
2022-09-09T22:18:53.993Z,13.90
2022-09-09T22:21:22.983Z,14.70
2022-09-09T22:23:53.394Z,14.40
2022-09-09T22:26:22.227Z,13.60
2022-09-09T22:28:50.780Z,14.60
2022-09-09T22:31:18.921Z,13.80
2022-09-09T22:33:47.662Z,14.20
2022-09-09T22:36:15.715Z,14.20
2022-09-09T22:38:44.197Z,14.30
2022-09-09T22:41:14.214Z,14.10
2022-09-09T22:43:43.617Z,14.90
2022-09-09T22:46:12.346Z,15.20
2022-09-09T22:48:40.886Z,14.40
2022-09-09T22:51:12.541Z,14.80
2022-09-09T22:53:42.354Z,14.60
2022-09-09T22:56:18.627Z,15.10
2022-09-09T22:58:54.397Z,14.80
2022-09-09T23:01:25.525Z,14.80
2022-09-09T23:03:55.811Z,15.30
2022-09-09T23:06:26.972Z,14.20
2022-09-09T23:08:57.922Z,15.30
2022-09-09T23:11:31.925Z,16.00
2022-09-09T23:14:03.176Z,15.00
2022-09-09T23:16:35.650Z,14.70
2022-09-09T23:19:05.033Z,15.50
2022-09-09T23:21:33.130Z,16.20
2022-09-09T23:24:02.030Z,16.20
2022-09-09T23:26:30.254Z,14.70
2022-09-09T23:29:00.313Z,16.90
2022-09-09T23:31:33.184Z,18.00
2022-09-09T23:34:01.777Z,15.60
2022-09-09T23:36:30.673Z,17.30
2022-09-09T23:39:02.323Z,16.20
2022-09-09T23:43:59.184Z,17.00
2022-09-09T23:46:28.819Z,17.60
2022-09-09T23:48:58.415Z,17.00
2022-09-09T23:51:29.737Z,18.30
2022-09-09T23:54:00.665Z,17.00
2022-09-09T23:56:32.639Z,16.70
2022-09-09T23:59:01.536Z,19.20
